• pl
  • eng

Awiacja
Komunikaty METAR z lotnisk wojskowych. 16:01 25.02.2017

METAR EPBC 251530Z NIL=

METAR EPCE 251530Z NIL=

METAR EPDA 251530Z 24006KT 210V280 9999 SCT114 03/M01
Q1016 RMK 030 077 3/3 =

METAR EPDE 251530Z 28012KT 9999 FEW040 01/M06 Q1019 RMK 014 059 2/2=

METAR EPIR 251530Z 24010KT 9999 FEW040 SCT200 03/M02 Q1018 RMK 034
066 4/1 =

METAR EPKS 251530Z 23008KT 9999 FEW030 SCT200 03/M02 Q1019 RMK 030
069 5/2=

METAR EPLK 251530Z 26010KT 9999 SCT034 SCT200 02/M01 Q1019 RMK 019
080 4/3=

METAR EPLY 251530Z NIL=

METAR EPMB 251530Z 26010KT 9999 FEW040 04/M05 Q1016 RMK 037 053 2/2=

METAR EPMI 251530Z NIL=

METAR EPMM 251530Z 25012KT 9999 SCT025 01/M05 Q1018 RMK 012 063 3/3 =

METAR EPNA 251530Z NIL=

METAR EPOK 251530Z 26012KT 9999 FEW041 03/M05
Q1015 RMK 027 058 1/1 =

METAR EPPR 251530Z NIL=

METAR EPPW 251530Z 24012KT 9999 FEW030 BKN200 03/M03 Q1018 RMK 032
062 6/2 =

METAR EPSN 251530Z 24008KT 9999 BKN030 BKN110 03/M03 Q1016 RMK 033
065 7/5 =

METAR EPTM 251530Z NIL=
Awiacja.imgw.pl jest pogodowym serwisem informacyjnym
Instytutu Meteorologii i Gospodarki Wodnej Państwowego Instytutu Badawczego.
Copyright IMGW PIB 2009-2011© Wszelkie prawa zastrzeżone.